Time;durP1;ratioP1;P1;durP2;ratioP2;P2;SDS_P1;SDS_P2;PMS_P1;PMS_P2;Temp;Humidity;BMP_temperature;BMP_pressure;BME280_temperature;BME280_humidity;BME280_pressure;Samples;Min_cycle;Max_cycle;Signal;HPM_P1;HPM_P2
2022/07/24 00:01:40;;;;;;;;;;;;;;;32.15;34.89;100379.50;4438540;32;20002;-68
2022/07/24 00:04:06;;;;;;;;;;;;;;;32.44;34.23;100374.72;4438035;32;19961;-68
2022/07/24 00:06:32;;;;;;;;;;;;;;;32.22;34.50;100376.50;4440073;32;19973;-68
2022/07/24 00:08:58;;;;;;;;;;;;;;;32.00;34.99;100370.91;4437541;32;20358;-68
2022/07/24 00:11:23;;;;;;;;;;;;;;;31.67;35.61;100361.50;4440397;32;19948;-68
2022/07/24 00:13:49;;;;;;;;;;;;;;;32.05;34.99;100367.75;4438255;32;20334;-68
2022/07/24 00:16:14;;;;;;;;;;;;;;;32.21;34.72;100360.38;4437604;32;20403;-68
2022/07/24 00:18:40;;;;;;;;;;;;;;;32.11;34.87;100358.75;4438968;32;20434;-68
2022/07/24 00:21:05;;;;;;;;;;;;;;;31.75;35.59;100355.63;4437266;32;20038;-68
2022/07/24 00:23:31;;;;;;;;;;;;;;;31.51;35.79;100344.75;4438239;32;20220;-68
2022/07/24 00:25:58;;;;;;;;;;;;;;;32.26;34.77;100358.56;4437417;32;20048;-68
2022/07/24 00:28:23;;;;;;;;;;;;;;;31.80;35.41;100349.53;4437963;32;19975;-68
2022/07/24 00:30:49;;;;;;;;;;;;;;;31.39;36.29;100340.78;4440044;32;19980;-68
2022/07/24 00:33:14;;;;;;;;;;;;;;;31.82;35.35;100341.03;4437506;32;19968;-69
2022/07/24 00:35:40;;;;;;;;;;;;;;;31.90;35.11;100338.03;4439805;32;20030;-68
2022/07/24 00:38:05;;;;;;;;;;;;;;;31.25;36.37;100336.59;4438011;32;20013;-68
2022/07/24 00:40:31;;;;;;;;;;;;;;;31.41;36.09;100350.47;4440264;32;20378;-68
2022/07/24 00:42:58;;;;;;;;;;;;;;;32.30;34.53;100348.03;4439042;32;19961;-68
2022/07/24 00:45:24;;;;;;;;;;;;;;;32.26;34.42;100347.72;4439839;32;20021;-68
2022/07/24 00:47:50;;;;;;;;;;;;;;;32.22;34.49;100355.34;4437894;32;19961;-68
2022/07/24 00:50:15;;;;;;;;;;;;;;;32.19;34.35;100354.41;4439882;32;20009;-68
2022/07/24 00:52:42;;;;;;;;;;;;;;;32.01;34.80;100332.47;4439012;32;20437;-68
2022/07/24 00:55:08;;;;;;;;;;;;;;;31.77;34.99;100323.75;4438215;32;20345;-68
2022/07/24 00:57:34;;;;;;;;;;;;;;;32.08;34.54;100319.97;4440561;32;19969;-68
2022/07/24 00:59:59;;;;;;;;;;;;;;;31.65;35.15;100308.94;4438572;32;20049;-68
2022/07/24 01:02:25;;;;;;;;;;;;;;;31.16;35.81;100306.03;4439819;32;20551;-68
2022/07/24 01:04:50;;;;;;;;;;;;;;;31.68;34.92;100301.16;4439056;32;20032;-68
2022/07/24 01:07:16;;;;;;;;;;;;;;;30.59;36.61;100296.53;4437561;32;19988;-68
2022/07/24 01:09:42;;;;;;;;;;;;;;;31.53;35.08;100313.72;4439928;32;20004;-68
2022/07/24 01:12:08;;;;;;;;;;;;;;;31.31;35.48;100302.25;4440016;32;19975;-68
2022/07/24 01:14:33;;;;;;;;;;;;;;;31.17;35.75;100301.75;4438958;32;19996;-68
2022/07/24 01:16:59;;;;;;;;;;;;;;;31.21;35.45;100325.41;4439041;32;19993;-68
2022/07/24 01:19:24;;;;;;;;;;;;;;;30.93;36.03;100317.06;4437167;32;19945;-68
2022/07/24 01:21:51;;;;;;;;;;;;;;;30.89;35.96;100299.25;4439896;32;20327;-68
2022/07/24 01:24:17;;;;;;;;;;;;;;;30.89;36.09;100302.16;4439304;32;19968;-68
2022/07/24 01:26:43;;;;;;;;;;;;;;;30.30;37.22;100293.19;4436858;32;19949;-68
2022/07/24 01:29:09;;;;;;;;;;;;;;;30.91;35.84;100278.31;4437836;32;20050;-68
2022/07/24 01:31:35;;;;;;;;;;;;;;;30.93;35.74;100275.63;4439858;32;20296;-68
2022/07/24 01:34:00;;;;;;;;;;;;;;;31.32;35.30;100275.50;4437945;32;20034;-68
2022/07/24 01:36:25;;;;;;;;;;;;;;;31.40;34.89;100278.34;4437100;32;19957;-68
2022/07/24 01:38:51;;;;;;;;;;;;;;;31.41;34.91;100268.28;4438797;32;20574;-68
2022/07/24 01:41:17;;;;;;;;;;;;;;;31.49;34.71;100266.06;4438597;32;20351;-68
2022/07/24 01:43:42;;;;;;;;;;;;;;;31.25;35.28;100263.91;4438533;32;19963;-68
2022/07/24 01:46:09;;;;;;;;;;;;;;;31.22;35.30;100265.09;4438471;32;19949;-68
2022/07/24 01:48:35;;;;;;;;;;;;;;;31.39;35.00;100268.09;4431918;32;19964;-68
2022/07/24 01:51:00;;;;;;;;;;;;;;;31.13;35.44;100266.53;4439882;32;20004;-68
2022/07/24 01:53:26;;;;;;;;;;;;;;;31.46;34.67;100273.06;4439112;32;20298;-68
2022/07/24 01:55:52;;;;;;;;;;;;;;;31.36;35.11;100263.47;4439393;32;19994;-68
2022/07/24 01:58:18;;;;;;;;;;;;;;;31.31;34.85;100279.00;4437100;32;20008;-68
2022/07/24 02:00:44;;;;;;;;;;;;;;;31.38;35.09;100269.47;4440340;32;20483;-68
2022/07/24 02:03:10;;;;;;;;;;;;;;;31.60;34.46;100265.56;4439628;32;19989;-68
2022/07/24 02:05:35;;;;;;;;;;;;;;;31.91;33.98;100252.25;4440698;32;19953;-68
2022/07/24 02:08:01;;;;;;;;;;;;;;;32.35;33.40;100250.16;4442012;32;19949;-68
2022/07/24 02:10:27;;;;;;;;;;;;;;;31.78;34.31;100267.13;4441308;32;20319;-67
2022/07/24 02:12:53;;;;;;;;;;;;;;;32.13;33.70;100266.53;4441458;32;20000;-67
2022/07/24 02:15:19;;;;;;;;;;;;;;;31.84;34.28;100270.56;4438200;32;20583;-68
2022/07/24 02:17:45;;;;;;;;;;;;;;;31.71;34.52;100276.69;4439601;32;19992;-67
2022/07/24 02:20:10;;;;;;;;;;;;;;;31.63;35.10;100270.94;4442654;32;20302;-67
2022/07/24 02:22:36;;;;;;;;;;;;;;;32.09;34.50;100262.50;4441362;32;19970;-67
2022/07/24 02:25:02;;;;;;;;;;;;;;;31.88;34.85;100268.78;4439967;32;20032;-67
2022/07/24 02:27:27;;;;;;;;;;;;;;;31.48;36.01;100274.03;4441461;32;19996;-67
2022/07/24 02:29:53;;;;;;;;;;;;;;;31.18;36.45;100268.44;4442075;32;19997;-67
2022/07/24 02:32:19;;;;;;;;;;;;;;;30.83;37.14;100271.81;4439995;32;19953;-67
2022/07/24 02:34:44;;;;;;;;;;;;;;;31.27;36.89;100264.09;4439694;32;20040;-67
2022/07/24 02:37:10;;;;;;;;;;;;;;;31.44;36.75;100278.72;4442132;32;20271;-67
2022/07/24 02:39:35;;;;;;;;;;;;;;;30.84;38.06;100274.13;4440658;32;20021;-67
2022/07/24 02:42:01;;;;;;;;;;;;;;;30.89;37.67;100270.19;4440689;32;20100;-67
2022/07/24 02:44:26;;;;;;;;;;;;;;;30.90;37.79;100260.16;4440488;32;19965;-67
2022/07/24 02:46:52;;;;;;;;;;;;;;;31.24;37.55;100257.34;4441232;32;20009;-66
2022/07/24 02:49:18;;;;;;;;;;;;;;;31.50;37.31;100258.88;4441063;32;20369;-66
2022/07/24 02:51:43;;;;;;;;;;;;;;;31.62;37.52;100266.50;4441144;32;20335;-67
2022/07/24 02:54:09;;;;;;;;;;;;;;;30.86;38.34;100253.19;4440826;32;20005;-67
2022/07/24 02:56:34;;;;;;;;;;;;;;;31.05;38.46;100247.63;4439668;32;20322;-67
2022/07/24 02:59:00;;;;;;;;;;;;;;;31.35;37.94;100253.22;4439729;32;20020;-67
2022/07/24 03:01:26;;;;;;;;;;;;;;;31.16;38.28;100255.88;4441591;32;19953;-66
2022/07/24 03:03:51;;;;;;;;;;;;;;;30.61;39.24;100256.81;4439988;32;19961;-66
2022/07/24 03:06:17;;;;;;;;;;;;;;;30.62;39.31;100275.78;4440166;32;19993;-66
2022/07/24 03:08:43;;;;;;;;;;;;;;;30.55;39.17;100276.59;4440815;32;20004;-66
2022/07/24 03:11:09;;;;;;;;;;;;;;;30.43;39.52;100281.31;4441448;32;19994;-66
2022/07/24 03:13:34;;;;;;;;;;;;;;;30.64;39.18;100278.09;4440628;32;20066;-67
2022/07/24 03:15:59;;;;;;;;;;;;;;;30.84;39.27;100274.87;4440190;32;20213;-67
2022/07/24 03:18:25;;;;;;;;;;;;;;;31.32;38.51;100263.13;4441454;32;19996;-68
2022/07/24 03:20:50;;;;;;;;;;;;;;;30.63;39.10;100264.94;4441274;32;20021;-67
2022/07/24 03:23:16;;;;;;;;;;;;;;;31.02;38.70;100263.34;4440554;32;19950;-66
2022/07/24 03:25:42;;;;;;;;;;;;;;;31.38;38.27;100257.84;4441172;32;20367;-66
2022/07/24 03:28:07;;;;;;;;;;;;;;;31.40;38.24;100255.06;4439187;32;19997;-66
2022/07/24 03:30:33;;;;;;;;;;;;;;;30.95;39.03;100250.41;4439333;32;19995;-66
2022/07/24 03:32:58;;;;;;;;;;;;;;;31.39;38.36;100265.97;4440212;32;19957;-66
2022/07/24 03:35:23;;;;;;;;;;;;;;;31.30;38.63;100257.91;4439398;32;19987;-66
2022/07/24 03:37:49;;;;;;;;;;;;;;;31.43;38.21;100263.41;4440767;32;20044;-66
2022/07/24 03:40:14;;;;;;;;;;;;;;;31.43;38.03;100257.56;4440261;32;20356;-66
2022/07/24 03:42:41;;;;;;;;;;;;;;;31.51;38.07;100257.50;4440590;32;20004;-66
2022/07/24 03:45:06;;;;;;;;;;;;;;;31.40;38.36;100255.88;4430656;32;20371;-66
2022/07/24 03:47:32;;;;;;;;;;;;;;;31.38;38.29;100246.19;4439974;32;20002;-66
2022/07/24 03:49:57;;;;;;;;;;;;;;;31.22;38.72;100256.38;4439971;32;20365;-66
2022/07/24 03:52:23;;;;;;;;;;;;;;;31.14;38.87;100247.75;4439824;32;20446;-66
2022/07/24 03:54:48;;;;;;;;;;;;;;;30.80;39.03;100245.47;4437665;32;19945;-66
2022/07/24 03:57:14;;;;;;;;;;;;;;;31.10;38.80;100246.63;4439613;32;20012;-66
2022/07/24 03:59:40;;;;;;;;;;;;;;;31.37;38.43;100245.41;4438292;32;19997;-66
2022/07/24 04:02:05;;;;;;;;;;;;;;;31.35;38.26;100245.22;4438730;32;20235;-66
2022/07/24 04:04:31;;;;;;;;;;;;;;;31.44;38.39;100246.72;4438064;32;20236;-67
2022/07/24 04:06:56;;;;;;;;;;;;;;;31.64;37.91;100251.34;4439421;32;19965;-67
2022/07/24 04:09:22;;;;;;;;;;;;;;;31.60;37.88;100245.94;4438959;32;19972;-67
2022/07/24 04:11:48;;;;;;;;;;;;;;;31.54;37.96;100247.59;4440002;32;19957;-67
2022/07/24 04:14:13;;;;;;;;;;;;;;;31.64;37.78;100255.03;4439200;32;19992;-67
2022/07/24 04:16:39;;;;;;;;;;;;;;;31.15;38.45;100246.38;4438459;32;19994;-67
2022/07/24 04:19:05;;;;;;;;;;;;;;;31.35;38.34;100245.22;4439182;32;19993;-67
2022/07/24 04:21:30;;;;;;;;;;;;;;;31.00;38.78;100243.59;4439730;32;20001;-67
2022/07/24 04:23:55;;;;;;;;;;;;;;;31.32;38.48;100237.69;4438233;32;20329;-67
2022/07/24 04:26:21;;;;;;;;;;;;;;;31.11;38.98;100254.75;4438583;32;19957;-67
2022/07/24 04:28:46;;;;;;;;;;;;;;;31.03;38.91;100262.75;4438866;32;20680;-67
2022/07/24 04:31:12;;;;;;;;;;;;;;;31.10;39.17;100250.28;4438537;32;19998;-67
2022/07/24 04:33:37;;;;;;;;;;;;;;;31.81;37.99;100254.28;4438963;32;20028;-67
2022/07/24 04:36:04;;;;;;;;;;;;;;;31.35;38.52;100250.31;4438075;32;19957;-67
2022/07/24 04:38:30;;;;;;;;;;;;;;;31.66;38.08;100251.53;4438054;32;19968;-67
2022/07/24 04:40:55;;;;;;;;;;;;;;;31.81;37.83;100246.34;4437455;32;19957;-67
2022/07/24 04:43:21;;;;;;;;;;;;;;;31.78;37.68;100258.38;4438022;32;19992;-67
2022/07/24 04:45:46;;;;;;;;;;;;;;;31.76;37.40;100258.22;4438733;32;20426;-67
2022/07/24 04:48:11;;;;;;;;;;;;;;;32.13;37.02;100257.81;4439579;32;20367;-66
2022/07/24 04:50:37;;;;;;;;;;;;;;;32.17;36.88;100261.03;4438221;32;19964;-66
2022/07/24 04:53:02;;;;;;;;;;;;;;;32.00;37.24;100272.69;4438048;32;19988;-67
2022/07/24 04:55:28;;;;;;;;;;;;;;;32.10;37.14;100259.00;4431019;32;20128;-67
2022/07/24 04:57:53;;;;;;;;;;;;;;;31.99;37.51;100255.81;4438947;32;19980;-67
2022/07/24 05:00:19;;;;;;;;;;;;;;;31.92;37.58;100260.38;4437757;32;21346;-67
2022/07/24 05:02:44;;;;;;;;;;;;;;;32.23;37.26;100264.47;4437556;32;19981;-66
2022/07/24 05:05:10;;;;;;;;;;;;;;;32.29;37.29;100258.34;4440238;32;20072;-66
2022/07/24 05:07:35;;;;;;;;;;;;;;;31.96;37.81;100257.81;4437312;32;19949;-66
2022/07/24 05:10:01;;;;;;;;;;;;;;;32.27;37.37;100261.88;4437280;32;20001;-66
2022/07/24 05:12:26;;;;;;;;;;;;;;;32.27;37.45;100261.88;4439365;32;19957;-66
2022/07/24 05:14:52;;;;;;;;;;;;;;;32.63;36.80;100253.25;4438123;32;19994;-66
2022/07/24 05:17:18;;;;;;;;;;;;;;;32.15;37.51;100260.09;4438657;32;20042;-66
2022/07/24 05:19:43;;;;;;;;;;;;;;;32.40;37.34;100255.69;4438436;32;19957;-66
2022/07/24 05:22:09;;;;;;;;;;;;;;;32.54;36.89;100253.97;4439818;32;19953;-67
2022/07/24 05:24:34;;;;;;;;;;;;;;;32.56;36.98;100257.06;4438743;32;20014;-66
2022/07/24 05:27:00;;;;;;;;;;;;;;;32.63;36.81;100247.41;4438891;32;19988;-66
2022/07/24 05:29:26;;;;;;;;;;;;;;;32.73;36.69;100250.37;4436309;32;19965;-66
2022/07/24 05:31:54;;;;;;;;;;;;;;;32.53;36.89;100248.75;4437329;32;20372;-66
2022/07/24 05:34:21;;;;;;;;;;;;;;;32.31;37.18;100261.44;4439052;32;19972;-67
2022/07/24 05:36:46;;;;;;;;;;;;;;;32.22;37.31;100253.41;4439857;32;19997;-67
2022/07/24 05:39:12;;;;;;;;;;;;;;;32.67;36.60;100249.88;4440100;32;19960;-67
2022/07/24 05:41:38;;;;;;;;;;;;;;;32.77;36.55;100255.78;4440805;32;19988;-67
2022/07/24 05:44:03;;;;;;;;;;;;;;;32.31;36.80;100249.81;4441809;32;19952;-67
2022/07/24 05:46:29;;;;;;;;;;;;;;;32.50;36.99;100244.91;4441632;32;20019;-67
2022/07/24 05:48:55;;;;;;;;;;;;;;;32.30;37.07;100245.34;4441423;32;19980;-67
2022/07/24 05:51:20;;;;;;;;;;;;;;;32.21;37.10;100246.81;4441048;32;19980;-67
2022/07/24 05:53:45;;;;;;;;;;;;;;;32.18;37.41;100258.91;4441209;32;19993;-67
2022/07/24 05:56:11;;;;;;;;;;;;;;;32.13;37.47;100251.97;4441192;32;19957;-67
2022/07/24 05:58:36;;;;;;;;;;;;;;;32.16;37.29;100258.72;4440279;32;19961;-67
2022/07/24 06:01:02;;;;;;;;;;;;;;;32.29;37.25;100255.44;4440799;32;19990;-67
2022/07/24 06:03:27;;;;;;;;;;;;;;;32.38;37.08;100243.91;4441915;32;19992;-67
2022/07/24 06:05:53;;;;;;;;;;;;;;;32.31;37.14;100236.00;4440602;32;20037;-67
2022/07/24 06:08:18;;;;;;;;;;;;;;;32.27;37.27;100244.41;4439147;32;20025;-67
2022/07/24 06:10:44;;;;;;;;;;;;;;;32.79;36.41;100250.87;4441064;32;19961;-67
2022/07/24 06:13:09;;;;;;;;;;;;;;;32.76;36.36;100249.16;4439458;32;19949;-67
2022/07/24 06:15:35;;;;;;;;;;;;;;;32.75;36.53;100252.69;4441271;32;19961;-67
2022/07/24 06:18:00;;;;;;;;;;;;;;;32.74;36.60;100251.16;4439303;32;20008;-67
2022/07/24 06:20:26;;;;;;;;;;;;;;;32.93;36.09;100239.59;4442988;32;20374;-67
2022/07/24 06:22:51;;;;;;;;;;;;;;;33.00;36.24;100236.56;4440695;32;20259;-67
2022/07/24 06:25:17;;;;;;;;;;;;;;;33.43;35.61;100240.72;4439297;32;19996;-67
2022/07/24 06:27:44;;;;;;;;;;;;;;;33.20;35.58;100237.41;4440688;32;19953;-67
2022/07/24 06:30:25;;;;;;;;;;;;;;;33.27;35.91;100236.50;4440960;32;19953;-67
2022/07/24 06:32:52;;;;;;;;;;;;;;;33.45;35.43;100238.72;4439825;32;19961;-67
2022/07/24 06:35:18;;;;;;;;;;;;;;;34.03;34.79;100242.50;4439002;32;20303;-67
2022/07/24 06:37:43;;;;;;;;;;;;;;;34.23;34.35;100241.06;4439413;32;20739;-67
2022/07/24 06:40:11;;;;;;;;;;;;;;;34.09;34.45;100249.56;4440669;32;19963;-66
2022/07/24 06:42:36;;;;;;;;;;;;;;;33.51;35.11;100242.12;4441152;32;19965;-66
2022/07/24 06:45:02;;;;;;;;;;;;;;;33.52;35.33;100240.72;4440032;32;19997;-66
2022/07/24 06:47:28;;;;;;;;;;;;;;;32.99;36.41;100246.69;4437530;32;20007;-66
2022/07/24 06:49:54;;;;;;;;;;;;;;;33.09;36.03;100246.72;4440066;32;19980;-66
2022/07/24 06:52:19;;;;;;;;;;;;;;;33.14;36.40;100245.69;4440382;32;19986;-66
2022/07/24 06:54:45;;;;;;;;;;;;;;;33.12;36.23;100240.44;4440564;32;19957;-67
2022/07/24 06:57:10;;;;;;;;;;;;;;;32.92;36.60;100235.16;4440413;32;19993;-67
2022/07/24 06:59:35;;;;;;;;;;;;;;;33.36;35.79;100244.50;4439741;32;20401;-66
2022/07/24 07:02:01;;;;;;;;;;;;;;;33.68;35.41;100247.06;4439246;32;20404;-66
2022/07/24 07:04:27;;;;;;;;;;;;;;;33.76;34.82;100248.44;4438166;32;19953;-66
2022/07/24 07:06:53;;;;;;;;;;;;;;;33.63;35.09;100240.16;4439613;32;19969;-67
2022/07/24 07:09:18;;;;;;;;;;;;;;;33.84;34.83;100243.22;4441221;32;20014;-67
2022/07/24 07:11:44;;;;;;;;;;;;;;;33.62;35.02;100243.69;4439911;32;20038;-67
2022/07/24 07:14:10;;;;;;;;;;;;;;;34.29;34.14;100244.44;4439666;32;19969;-67
2022/07/24 07:16:35;;;;;;;;;;;;;;;34.05;33.84;100239.72;4440151;32;20362;-67
2022/07/24 07:19:01;;;;;;;;;;;;;;;34.99;33.07;100235.06;4441347;32;20023;-67
2022/07/24 07:21:26;;;;;;;;;;;;;;;34.68;33.12;100234.25;4439988;32;20451;-67
2022/07/24 07:23:52;;;;;;;;;;;;;;;34.73;33.22;100239.00;4439610;32;19979;-67
2022/07/24 07:26:18;;;;;;;;;;;;;;;34.81;32.95;100230.06;4440501;32;19956;-67
2022/07/24 07:28:44;;;;;;;;;;;;;;;34.41;33.52;100244.63;4438371;32;19953;-67
2022/07/24 07:31:10;;;;;;;;;;;;;;;34.23;33.74;100247.69;4439404;32;19963;-67
2022/07/24 07:33:36;;;;;;;;;;;;;;;34.43;33.34;100239.69;4438273;32;20357;-67
2022/07/24 07:36:01;;;;;;;;;;;;;;;34.38;33.41;100249.53;4439710;32;19960;-67
2022/07/24 07:38:27;;;;;;;;;;;;;;;34.95;32.80;100254.50;4439550;32;19953;-67
2022/07/24 07:40:52;;;;;;;;;;;;;;;34.34;33.41;100249.22;4439456;32;19998;-67
2022/07/24 07:43:18;;;;;;;;;;;;;;;34.78;33.14;100243.75;4438525;32;19992;-67
2022/07/24 07:45:43;;;;;;;;;;;;;;;34.89;32.91;100239.44;4438627;32;20007;-67
2022/07/24 07:48:09;;;;;;;;;;;;;;;35.14;32.26;100248.53;4440119;32;20012;-67
2022/07/24 07:50:34;;;;;;;;;;;;;;;34.93;32.55;100237.56;4440232;32;20345;-67
2022/07/24 07:53:00;;;;;;;;;;;;;;;35.50;32.09;100251.16;4439300;32;20012;-67
2022/07/24 07:55:26;;;;;;;;;;;;;;;35.12;32.23;100246.25;4438694;32;20023;-67
2022/07/24 07:57:51;;;;;;;;;;;;;;;34.67;32.57;100246.56;4438001;32;20052;-67
2022/07/24 08:00:18;;;;;;;;;;;;;;;34.69;32.83;100235.78;4437969;32;19987;-67
2022/07/24 08:02:43;;;;;;;;;;;;;;;34.88;32.27;100250.34;4431262;32;20342;-67
2022/07/24 08:05:09;;;;;;;;;;;;;;;35.38;31.93;100239.38;4437266;32;20303;-67
2022/07/24 08:07:34;;;;;;;;;;;;;;;34.82;32.23;100234.50;4439817;32;20004;-67
2022/07/24 08:10:00;;;;;;;;;;;;;;;34.73;32.88;100241.94;4434969;32;20251;-67
2022/07/24 08:12:26;;;;;;;;;;;;;;;34.74;32.33;100236.84;4439838;32;20379;-67
2022/07/24 08:14:52;;;;;;;;;;;;;;;34.93;32.22;100237.56;4435871;32;20252;-68
2022/07/24 08:17:17;;;;;;;;;;;;;;;35.73;31.16;100243.28;4439563;32;19957;-67
2022/07/24 08:19:45;;;;;;;;;;;;;;;35.28;31.31;100232.75;4438738;32;19977;-67
2022/07/24 08:22:11;;;;;;;;;;;;;;;35.44;31.62;100228.09;4438802;32;20003;-67
2022/07/24 08:24:36;;;;;;;;;;;;;;;35.44;31.36;100236.87;4438931;32;20021;-67
2022/07/24 08:27:01;;;;;;;;;;;;;;;34.81;32.28;100230.06;4439110;32;19953;-67
2022/07/24 08:29:28;;;;;;;;;;;;;;;35.31;31.47;100231.50;4438375;32;20002;-67
2022/07/24 08:31:53;;;;;;;;;;;;;;;35.11;31.79;100238.09;4438950;32;20442;-67
2022/07/24 08:34:19;;;;;;;;;;;;;;;34.90;31.82;100238.81;4438694;32;19956;-67
2022/07/24 08:36:45;;;;;;;;;;;;;;;34.95;32.40;100242.78;4437406;32;20014;-67
2022/07/24 08:39:12;;;;;;;;;;;;;;;34.92;32.21;100236.03;4439097;32;20356;-67
2022/07/24 08:41:38;;;;;;;;;;;;;;;35.22;31.89;100235.25;4439568;32;19969;-67
2022/07/24 08:44:03;;;;;;;;;;;;;;;35.54;31.39;100228.00;4440210;32;19983;-67
2022/07/24 08:46:30;;;;;;;;;;;;;;;35.51;31.80;100235.88;4438276;32;20301;-67
2022/07/24 08:48:56;;;;;;;;;;;;;;;35.74;31.23;100221.38;4437516;32;19948;-67
2022/07/24 08:51:22;;;;;;;;;;;;;;;36.13;30.56;100228.47;4438907;32;20334;-67
2022/07/24 08:53:49;;;;;;;;;;;;;;;36.28;30.53;100224.34;4437333;32;19949;-67
2022/07/24 08:56:16;;;;;;;;;;;;;;;35.90;30.82;100222.53;4436973;32;19974;-67
2022/07/24 08:58:41;;;;;;;;;;;;;;;35.78;31.14;100227.53;4438656;32;20020;-68
2022/07/24 09:01:08;;;;;;;;;;;;;;;35.77;31.09;100231.84;4439718;32;19957;-67
2022/07/24 09:03:41;;;;;;;;;;;;;;;35.40;31.70;100227.78;4437437;32;20014;-67
2022/07/24 09:06:08;;;;;;;;;;;;;;;36.42;30.58;100224.50;4439609;32;19992;-67
2022/07/24 09:08:33;;;;;;;;;;;;;;;35.22;31.76;100206.00;4437028;32;19957;-67
2022/07/24 09:11:03;;;;;;;;;;;;;;;35.63;31.55;100215.47;4441247;32;19992;-67
2022/07/24 09:14:29;;;;;;;;;;;;;;;36.19;30.92;100210.53;4441941;32;20310;-67
2022/07/24 09:16:21;;;;;;;;;;;;;;;36.24;30.66;100215.25;4439168;32;20029;-67
2022/07/24 09:18:47;;;;;;;;;;;;;;;35.79;31.11;100210.72;4442304;32;19948;-67
2022/07/24 09:21:14;;;;;;;;;;;;;;;36.05;31.06;100210.34;4442100;32;20322;-68
2022/07/24 09:23:40;;;;;;;;;;;;;;;36.43;30.52;100217.25;4441790;32;20052;-68
2022/07/24 09:26:05;;;;;;;;;;;;;;;35.88;31.13;100215.75;4441179;32;20006;-68
2022/07/24 09:28:45;;;;;;;;;;;;;;;35.91;31.06;100197.69;4441496;32;20468;-68
2022/07/24 09:31:11;;;;;;;;;;;;;;;36.97;30.07;100203.97;4442373;32;20000;-67
2022/07/24 09:33:37;;;;;;;;;;;;;;;36.32;30.48;100209.94;4441311;32;20294;-68
2022/07/24 09:36:10;;;;;;;;;;;;;;;35.92;31.02;100201.41;4440429;32;19960;-68
2022/07/24 09:38:36;;;;;;;;;;;;;;;36.36;30.30;100204.38;4440749;32;20018;-68
2022/07/24 09:41:02;;;;;;;;;;;;;;;36.20;30.78;100194.50;4442330;32;20399;-68
2022/07/24 09:43:28;;;;;;;;;;;;;;;36.47;30.27;100200.69;4441255;32;19971;-68
2022/07/24 09:48:33;;;;;;;;;;;;;;;37.01;29.93;100213.03;3943724;32;15975407;-68
2022/07/24 09:51:00;;;;;;;;;;;;;;;37.01;29.93;100213.03;4433528;32;19987;-68
2022/07/24 09:53:27;;;;;;;;;;;;;;;36.54;29.99;100201.84;4428836;32;20286;-67
2022/07/24 09:55:58;;;;;;;;;;;;;;;36.11;30.63;100195.34;4426959;32;20362;-67
2022/07/24 09:58:23;;;;;;;;;;;;;;;36.01;30.81;100213.00;4426516;32;19997;-67
2022/07/24 10:00:51;;;;;;;;;;;;;;;36.27;30.32;100210.28;4430084;32;19953;-68
2022/07/24 10:03:18;;;;;;;;;;;;;;;36.09;30.62;100219.41;4426870;32;20142;-67
2022/07/24 10:05:45;;;;;;;;;;;;;;;36.02;31.08;100216.72;4429056;32;19954;-68
2022/07/24 10:08:13;;;;;;;;;;;;;;;35.68;31.31;100209.25;4428172;32;20479;-68
2022/07/24 10:10:40;;;;;;;;;;;;;;;35.81;31.06;100217.53;4430673;32;19958;-68
2022/07/24 10:13:06;;;;;;;;;;;;;;;35.85;30.98;100220.72;4429206;32;19996;-68
2022/07/24 10:15:33;;;;;;;;;;;;;;;36.15;30.64;100210.25;4428278;32;19954;-68
2022/07/24 10:18:10;;;;;;;;;;;;;;;35.62;31.33;100217.63;4428541;32;19957;-68
2022/07/24 10:20:40;;;;;;;;;;;;;;;36.21;30.62;100225.31;4430743;32;19961;-68
2022/07/24 10:23:06;;;;;;;;;;;;;;;36.59;29.82;100221.25;4425436;32;20385;-67
2022/07/24 10:25:44;;;;;;;;;;;;;;;36.65;29.83;100213.59;4425809;32;19953;-67
2022/07/24 10:28:14;;;;;;;;;;;;;;;37.66;28.66;100214.91;4427883;32;19965;-67
2022/07/24 10:30:40;;;;;;;;;;;;;;;37.00;29.28;100219.53;4430218;32;20001;-67
2022/07/24 10:33:06;;;;;;;;;;;;;;;38.05;27.96;100221.66;4427585;32;19996;-67
2022/07/24 10:35:32;;;;;;;;;;;;;;;38.72;27.33;100223.37;4429582;32;20574;-67
2022/07/24 10:38:08;;;;;;;;;;;;;;;39.07;26.69;100223.91;4430242;32;20082;-68
2022/07/24 10:40:50;;;;;;;;;;;;;;;38.79;26.48;100205.44;4428472;32;20012;-68
2022/07/24 10:43:17;;;;;;;;;;;;;;;37.69;28.06;100214.38;4428117;32;20032;-68
2022/07/24 10:46:03;;;;;;;;;;;;;;;38.56;27.13;100205.56;4428051;32;20735;-68
2022/07/24 10:48:31;;;;;;;;;;;;;;;38.76;26.62;100200.84;4425395;32;20012;-68
2022/07/24 10:56:19;;;;;;;;;;;;;;;37.65;28.31;100195.75;3952847;32;15728499;-68
2022/07/24 11:04:22;;;;;;;;;;;;;;;37.70;28.23;100185.78;3951623;32;15724376;-68
2022/07/24 11:09:25;;;;;;;;;;;;;;;37.40;28.35;100180.97;3950921;32;15723564;-68
2022/07/24 11:17:29;;;;;;;;;;;;;;;37.49;28.27;100197.69;3967647;31;15717082;-68
2022/07/24 11:19:56;;;;;;;;;;;;;;;37.49;28.27;100197.69;4441692;32;20001;-68
2022/07/24 11:22:36;;;;;;;;;;;;;;;37.33;28.42;100188.63;4443772;32;20416;-68
2022/07/24 11:25:06;;;;;;;;;;;;;;;37.32;28.76;100195.94;4442746;32;20000;-67
2022/07/24 11:27:40;;;;;;;;;;;;;;;37.03;30.22;100197.72;4441642;32;20299;-67
2022/07/24 11:30:06;;;;;;;;;;;;;;;36.55;31.67;100183.63;4437351;32;20271;-67
2022/07/24 11:32:32;;;;;;;;;;;;;;;36.69;31.66;100177.91;4434297;32;20004;-67
2022/07/24 11:35:01;;;;;;;;;;;;;;;35.82;32.80;100166.34;4438610;32;20000;-66
2022/07/24 11:37:29;;;;;;;;;;;;;;;34.82;34.92;100182.66;4444794;32;20282;-66
2022/07/24 11:39:55;;;;;;;;;;;;;;;34.68;35.70;100164.09;4432478;32;20382;-66
2022/07/24 11:42:21;;;;;;;;;;;;;;;34.66;35.81;100166.84;4441089;32;19971;-67
2022/07/24 11:44:48;;;;;;;;;;;;;;;34.87;35.59;100158.19;4438615;32;20445;-68
2022/07/24 11:47:16;;;;;;;;;;;;;;;36.06;34.43;100161.31;4440186;32;20228;-67
2022/07/24 11:49:43;;;;;;;;;;;;;;;36.68;33.53;100152.91;4443254;32;19992;-67
2022/07/24 11:52:18;;;;;;;;;;;;;;;37.39;31.59;100165.53;4441968;32;20303;-67
2022/07/24 11:54:44;;;;;;;;;;;;;;;37.47;31.95;100165.25;4442278;32;20056;-68
2022/07/24 11:59:54;;;;;;;;;;;;;;;39.33;29.18;100158.34;3951245;32;15723560;-68
2022/07/24 12:02:21;;;;;;;;;;;;;;;39.33;29.18;100158.34;4429096;32;20080;-68
2022/07/24 12:04:48;;;;;;;;;;;;;;;38.22;29.67;100159.47;4427451;32;20003;-68
2022/07/24 12:07:16;;;;;;;;;;;;;;;37.47;30.26;100142.53;4427824;32;20007;-68
2022/07/24 12:09:46;;;;;;;;;;;;;;;37.14;30.85;100126.50;4426762;32;19992;-68
2022/07/24 12:12:19;;;;;;;;;;;;;;;37.17;30.70;100143.59;4428537;32;19992;-68
2022/07/24 12:14:45;;;;;;;;;;;;;;;38.38;29.31;100133.97;4427993;32;20014;-68
2022/07/24 12:17:11;;;;;;;;;;;;;;;38.68;28.96;100135.66;4428022;32;20000;-68
2022/07/24 12:19:36;;;;;;;;;;;;;;;38.91;28.45;100131.75;4429065;32;19984;-68
2022/07/24 12:22:02;;;;;;;;;;;;;;;38.91;28.11;100122.94;4430533;32;19953;-68
2022/07/24 12:24:30;;;;;;;;;;;;;;;38.37;28.71;100125.81;4426822;32;19965;-68
2022/07/24 12:26:57;;;;;;;;;;;;;;;37.76;29.64;100107.59;4424479;32;19956;-68
2022/07/24 12:29:24;;;;;;;;;;;;;;;37.89;30.50;100115.69;4424923;32;20001;-68
2022/07/24 12:31:52;;;;;;;;;;;;;;;37.77;30.80;100117.19;4427833;32;19963;-68
2022/07/24 12:34:17;;;;;;;;;;;;;;;37.45;30.50;100113.06;4430630;32;20019;-68
2022/07/24 12:36:43;;;;;;;;;;;;;;;37.84;30.20;100119.81;4428219;32;20001;-68
2022/07/24 12:39:10;;;;;;;;;;;;;;;37.49;30.23;100127.22;4428743;32;19957;-68
2022/07/24 12:41:44;;;;;;;;;;;;;;;36.77;30.95;100120.56;4427410;32;20295;-68
2022/07/24 12:44:10;;;;;;;;;;;;;;;37.69;29.79;100096.12;4426662;32;19996;-68
2022/07/24 12:46:36;;;;;;;;;;;;;;;37.26;30.42;100100.84;4424773;32;20395;-68
2022/07/24 12:49:04;;;;;;;;;;;;;;;37.22;30.40;100103.56;4427674;32;19970;-67
2022/07/24 12:51:49;;;;;;;;;;;;;;;37.07;30.63;100092.34;4428557;32;20225;-67
2022/07/24 12:54:16;;;;;;;;;;;;;;;36.89;30.63;100097.09;4429833;32;20641;-68
2022/07/24 12:56:42;;;;;;;;;;;;;;;37.38;30.16;100084.75;4428372;32;19957;-68